createdAt,value
2022-10-15T00:01:44.227Z,98.81
2022-10-15T00:03:47.083Z,99.37
2022-10-15T00:05:49.825Z,100.00
2022-10-15T00:07:52.992Z,100.00
2022-10-15T00:09:56.447Z,100.00
2022-10-15T00:11:59.062Z,100.00
2022-10-15T00:14:01.694Z,100.00
2022-10-15T00:16:04.824Z,100.00
2022-10-15T00:18:07.380Z,100.00
2022-10-15T00:20:11.209Z,99.82
2022-10-15T00:22:14.013Z,100.00
2022-10-15T00:24:16.607Z,100.00
2022-10-15T00:26:22.006Z,100.00
2022-10-15T00:28:25.181Z,100.00
2022-10-15T00:30:27.842Z,100.00
2022-10-15T00:32:30.935Z,99.39
2022-10-15T00:34:33.695Z,99.50
2022-10-15T00:36:37.557Z,99.53
2022-10-15T00:38:40.598Z,98.42
2022-10-15T00:40:43.216Z,99.13
2022-10-15T00:42:46.107Z,99.94
2022-10-15T00:44:57.594Z,99.77
2022-10-15T00:47:23.327Z,99.10
2022-10-15T00:49:33.887Z,99.19
2022-10-15T00:51:43.110Z,98.77
2022-10-15T00:53:46.599Z,99.09
2022-10-15T00:55:51.337Z,98.67
2022-10-15T00:57:56.221Z,98.25
2022-10-15T01:00:07.299Z,98.67
2022-10-15T01:02:11.275Z,98.60
2022-10-15T01:04:15.385Z,98.12
2022-10-15T01:06:18.035Z,99.14
2022-10-15T01:08:20.645Z,99.38
2022-10-15T01:10:29.472Z,99.12
2022-10-15T01:13:02.771Z,99.32
2022-10-15T01:15:29.612Z,99.61
2022-10-15T01:17:48.184Z,100.00
2022-10-15T01:20:24.536Z,99.02
2022-10-15T01:22:53.675Z,99.40
2022-10-15T01:25:21.263Z,99.27
2022-10-15T01:27:33.181Z,100.00
2022-10-15T01:29:54.410Z,98.89
2022-10-15T01:32:14.421Z,98.37
2022-10-15T01:34:29.025Z,98.54
2022-10-15T01:36:56.893Z,99.25
2022-10-15T01:39:37.156Z,99.38
2022-10-15T01:41:44.521Z,99.94
2022-10-15T01:43:58.098Z,100.00
2022-10-15T01:46:06.387Z,99.42
2022-10-15T01:48:11.762Z,98.89
2022-10-15T01:50:17.506Z,99.25
2022-10-15T01:52:24.554Z,99.85
2022-10-15T01:54:28.225Z,99.66
2022-10-15T01:56:34.827Z,99.82
2022-10-15T01:58:41.444Z,100.00
2022-10-15T02:00:44.770Z,100.00
2022-10-15T02:02:47.408Z,100.00
2022-10-15T02:04:50.333Z,100.00
2022-10-15T02:07:07.371Z,99.51
2022-10-15T02:09:37.148Z,99.54
2022-10-15T02:11:47.997Z,100.00
2022-10-15T02:14:51.823Z,100.00
2022-10-15T02:17:12.115Z,100.00
2022-10-15T02:19:43.426Z,100.00
2022-10-15T02:22:06.468Z,99.56
2022-10-15T02:24:27.648Z,100.00
2022-10-15T02:26:31.435Z,100.00
2022-10-15T02:28:37.143Z,100.00
2022-10-15T02:30:42.394Z,99.61
2022-10-15T02:32:49.489Z,99.77
2022-10-15T02:34:53.750Z,98.94
2022-10-15T02:36:59.163Z,99.06
2022-10-15T02:39:04.012Z,99.51
2022-10-15T02:41:08.648Z,99.10
2022-10-15T02:43:14.902Z,99.33
2022-10-15T02:45:17.617Z,98.78
2022-10-15T02:47:20.312Z,99.37
2022-10-15T02:49:22.970Z,99.00
2022-10-15T02:51:25.683Z,99.39
2022-10-15T02:53:28.310Z,99.46
2022-10-15T02:55:31.074Z,99.38
2022-10-15T02:57:33.741Z,98.95
2022-10-15T02:59:36.403Z,99.36
2022-10-15T03:01:39.057Z,99.10
2022-10-15T03:03:41.697Z,99.56
2022-10-15T03:05:44.429Z,99.24
2022-10-15T03:07:47.007Z,99.37
2022-10-15T03:09:49.639Z,99.30
2022-10-15T03:11:52.292Z,99.06
2022-10-15T03:13:54.860Z,98.85
2022-10-15T03:15:57.455Z,99.19
2022-10-15T03:18:00.064Z,99.08
2022-10-15T03:20:02.683Z,98.89
2022-10-15T03:22:06.054Z,98.46
2022-10-15T03:24:08.724Z,98.59
2022-10-15T03:26:11.347Z,99.09
2022-10-15T03:28:14.021Z,98.32
2022-10-15T03:30:16.946Z,98.57
2022-10-15T03:32:19.566Z,98.60
2022-10-15T03:34:22.236Z,98.98
2022-10-15T03:36:24.808Z,98.83
2022-10-15T03:38:27.411Z,98.38
2022-10-15T03:40:30.059Z,98.66
2022-10-15T03:42:32.654Z,98.45
2022-10-15T03:44:35.388Z,98.81
2022-10-15T03:46:38.058Z,99.17
2022-10-15T03:48:40.683Z,99.48
2022-10-15T03:52:50.930Z,100.00
2022-10-15T03:54:53.536Z,99.89
2022-10-15T03:56:56.313Z,100.00
2022-10-15T03:58:58.966Z,100.00
2022-10-15T04:01:01.938Z,100.00
2022-10-15T04:03:04.579Z,100.00
2022-10-15T04:05:07.424Z,100.00
2022-10-15T04:07:10.126Z,99.91
2022-10-15T04:09:12.712Z,98.46
2022-10-15T04:11:15.254Z,99.73
2022-10-15T04:13:17.848Z,98.92
2022-10-15T04:15:20.518Z,99.01
2022-10-15T04:17:23.118Z,99.21
2022-10-15T04:19:25.889Z,99.58
2022-10-15T04:21:28.489Z,99.65
2022-10-15T04:23:31.132Z,99.34
2022-10-15T04:25:33.669Z,99.39
2022-10-15T04:27:36.277Z,98.59
2022-10-15T04:29:38.874Z,99.30
2022-10-15T04:31:42.021Z,99.10
2022-10-15T04:33:44.606Z,99.34
2022-10-15T04:35:47.263Z,99.12
2022-10-15T04:37:49.933Z,99.49
2022-10-15T04:39:52.580Z,98.64
2022-10-15T04:41:55.153Z,99.49
2022-10-15T04:43:58.599Z,99.19
2022-10-15T04:46:02.912Z,99.42
2022-10-15T04:48:05.702Z,99.13
2022-10-15T04:50:08.691Z,99.36
2022-10-15T04:52:11.369Z,99.38
2022-10-15T04:54:14.124Z,98.87
2022-10-15T04:56:19.666Z,99.13
2022-10-15T04:58:22.465Z,98.85
2022-10-15T05:00:25.345Z,98.46
2022-10-15T05:02:29.155Z,98.61
2022-10-15T05:04:32.014Z,98.23
2022-10-15T05:06:35.056Z,97.99
2022-10-15T05:08:38.800Z,98.09
2022-10-15T05:10:41.608Z,98.29
2022-10-15T05:12:44.356Z,98.48
2022-10-15T05:14:47.046Z,98.70
2022-10-15T05:16:49.727Z,99.15
2022-10-15T05:18:56.722Z,99.00
2022-10-15T05:21:02.245Z,99.29
2022-10-15T05:23:06.516Z,99.46
2022-10-15T05:25:09.816Z,99.84
2022-10-15T05:27:13.317Z,99.30
2022-10-15T05:29:15.992Z,99.27
2022-10-15T05:31:22.307Z,99.66
2022-10-15T05:33:24.961Z,99.27
2022-10-15T05:35:27.652Z,98.69
2022-10-15T05:37:30.273Z,98.52
2022-10-15T05:39:32.941Z,98.60
2022-10-15T05:41:35.658Z,98.29
2022-10-15T05:43:41.179Z,98.15
2022-10-15T05:45:44.278Z,98.01
2022-10-15T05:47:46.936Z,97.91
2022-10-15T05:49:49.517Z,97.66
2022-10-15T05:51:52.281Z,97.79
2022-10-15T05:53:56.343Z,98.69
2022-10-15T05:55:59.530Z,97.82
2022-10-15T05:58:03.863Z,97.32
2022-10-15T06:00:07.860Z,96.44
2022-10-15T06:02:16.320Z,97.21
2022-10-15T06:04:19.153Z,96.42
2022-10-15T06:06:25.249Z,96.76
2022-10-15T06:08:29.676Z,95.98
2022-10-15T06:10:35.992Z,96.13
2022-10-15T06:12:39.426Z,96.63
2022-10-15T06:14:42.022Z,96.84
2022-10-15T06:16:44.700Z,96.68
2022-10-15T06:18:47.345Z,96.24
2022-10-15T06:20:53.917Z,96.61
2022-10-15T06:23:00.902Z,95.29
2022-10-15T06:25:03.777Z,94.57
2022-10-15T06:27:06.575Z,94.38
2022-10-15T06:29:10.638Z,94.94
2022-10-15T06:31:13.247Z,95.17
2022-10-15T06:33:17.326Z,94.77
2022-10-15T06:35:21.960Z,94.81
2022-10-15T06:37:24.839Z,95.31
2022-10-15T06:39:27.664Z,94.75
2022-10-15T06:41:30.301Z,95.22
2022-10-15T06:43:35.203Z,95.31
2022-10-15T06:45:42.794Z,94.92
2022-10-15T06:47:45.563Z,94.94
2022-10-15T06:49:48.327Z,94.80
2022-10-15T06:51:50.932Z,94.06
2022-10-15T06:53:53.622Z,94.17
2022-10-15T06:56:00.958Z,93.65
2022-10-15T06:58:03.706Z,94.37
2022-10-15T07:00:07.095Z,94.06
2022-10-15T07:02:11.412Z,93.82
2022-10-15T07:04:14.168Z,93.92
2022-10-15T07:06:17.110Z,92.98
2022-10-15T07:08:19.796Z,93.44
2022-10-15T07:10:23.399Z,93.69
2022-10-15T07:12:26.425Z,94.14
2022-10-15T07:14:29.833Z,94.08
2022-10-15T07:16:32.790Z,94.09
2022-10-15T07:18:36.563Z,93.69
2022-10-15T07:20:39.402Z,94.26
2022-10-15T07:22:42.772Z,95.16
2022-10-15T07:24:45.462Z,95.17
2022-10-15T07:26:48.588Z,94.62
2022-10-15T07:28:51.698Z,94.74
2022-10-15T07:30:54.537Z,94.06
2022-10-15T07:32:58.095Z,93.70
2022-10-15T07:35:00.917Z,94.34
2022-10-15T07:37:03.717Z,94.10
2022-10-15T07:39:06.359Z,93.51
2022-10-15T07:41:10.935Z,92.74
2022-10-15T07:43:16.224Z,91.81
2022-10-15T07:45:18.941Z,92.10
2022-10-15T07:47:22.253Z,93.24
2022-10-15T07:49:25.236Z,91.30
2022-10-15T07:51:28.348Z,90.26
2022-10-15T07:53:31.356Z,91.39
2022-10-15T07:55:33.990Z,91.71
2022-10-15T07:57:36.606Z,91.53
2022-10-15T07:59:39.232Z,90.30
2022-10-15T08:01:42.747Z,91.03
2022-10-15T08:03:46.567Z,90.82
2022-10-15T08:05:53.329Z,90.86
2022-10-15T08:07:56.055Z,90.26
2022-10-15T08:09:58.786Z,90.45
2022-10-15T08:12:01.474Z,90.82
2022-10-15T08:14:04.340Z,90.34
2022-10-15T08:16:07.271Z,89.74
2022-10-15T08:18:12.931Z,88.14
2022-10-15T08:20:15.619Z,89.84
2022-10-15T08:22:18.397Z,89.25
2022-10-15T08:24:21.165Z,89.79
2022-10-15T08:26:24.027Z,88.88
2022-10-15T08:28:31.966Z,88.59
2022-10-15T08:30:34.972Z,89.33
2022-10-15T08:32:37.622Z,89.63
2022-10-15T08:34:40.415Z,87.12
2022-10-15T08:36:43.710Z,86.58
2022-10-15T08:38:46.430Z,86.94
2022-10-15T08:40:52.054Z,87.59
2022-10-15T08:42:54.853Z,89.00
2022-10-15T08:45:02.586Z,87.93
2022-10-15T08:47:17.952Z,87.36
2022-10-15T08:49:46.112Z,86.00
2022-10-15T08:51:54.856Z,86.27
2022-10-15T08:54:02.638Z,85.18
2022-10-15T08:56:15.231Z,83.88
2022-10-15T08:58:25.581Z,83.57
2022-10-15T09:00:36.318Z,85.36
2022-10-15T09:03:00.204Z,85.99
2022-10-15T09:05:21.235Z,84.38
2022-10-15T09:07:37.300Z,84.08
2022-10-15T09:09:58.390Z,85.81
2022-10-15T09:12:38.429Z,82.71
2022-10-15T09:14:45.174Z,84.25
2022-10-15T09:16:51.421Z,85.69
2022-10-15T09:18:54.782Z,85.55
2022-10-15T09:20:58.516Z,86.59
2022-10-15T09:23:01.605Z,84.38
2022-10-15T09:25:22.262Z,81.33
2022-10-15T09:27:36.755Z,84.43
2022-10-15T09:29:53.150Z,83.75
2022-10-15T09:32:39.143Z,81.04
2022-10-15T09:34:54.852Z,82.25
2022-10-15T09:37:05.626Z,80.29
2022-10-15T09:39:23.713Z,81.40
2022-10-15T09:42:07.582Z,81.44
2022-10-15T09:44:14.770Z,83.44
2022-10-15T09:46:17.957Z,84.24
2022-10-15T09:48:21.419Z,84.44
2022-10-15T09:50:26.237Z,84.50
2022-10-15T09:53:06.646Z,82.89
2022-10-15T09:55:17.407Z,85.77
2022-10-15T09:57:22.784Z,85.27
2022-10-15T09:59:26.118Z,85.02
2022-10-15T10:01:31.107Z,85.18
2022-10-15T10:03:36.078Z,85.08
2022-10-15T10:05:39.374Z,85.45
2022-10-15T10:07:42.217Z,83.77
2022-10-15T10:09:53.911Z,81.84
2022-10-15T10:12:09.023Z,81.90
2022-10-15T10:14:26.998Z,80.09
2022-10-15T10:16:32.356Z,81.65
2022-10-15T10:18:35.942Z,79.07
2022-10-15T10:20:58.915Z,77.46
2022-10-15T10:23:20.689Z,78.14
2022-10-15T10:25:30.369Z,75.99
2022-10-15T10:27:33.761Z,76.63
2022-10-15T10:29:41.355Z,77.99
2022-10-15T10:31:45.260Z,78.85
2022-10-15T10:33:50.593Z,80.16
2022-10-15T10:35:53.476Z,79.74
2022-10-15T10:37:56.162Z,80.75
2022-10-15T10:40:01.060Z,79.69
2022-10-15T10:42:20.175Z,78.51
2022-10-15T10:44:30.822Z,79.39
2022-10-15T10:46:33.439Z,80.00
2022-10-15T10:48:50.503Z,77.97
2022-10-15T10:51:08.990Z,74.31
2022-10-15T10:53:24.253Z,76.08
2022-10-15T10:55:37.436Z,77.27
2022-10-15T10:58:03.824Z,75.75
2022-10-15T11:00:08.138Z,74.68
2022-10-15T11:02:13.168Z,74.80
2022-10-15T11:04:33.970Z,72.18
2022-10-15T11:06:42.769Z,74.20
2022-10-15T11:08:48.120Z,72.32
2022-10-15T11:11:03.171Z,71.15
2022-10-15T11:13:27.661Z,69.69
2022-10-15T11:15:45.352Z,69.37
2022-10-15T11:17:50.681Z,69.34
2022-10-15T11:23:00.120Z,66.91
2022-10-15T11:25:22.940Z,65.46
2022-10-15T11:27:54.993Z,66.60
2022-10-15T11:30:35.666Z,64.96
2022-10-15T11:33:07.682Z,64.35
2022-10-15T11:35:52.498Z,65.49
2022-10-15T11:38:32.808Z,62.25
2022-10-15T11:41:12.727Z,61.88
2022-10-15T11:43:33.544Z,61.81
2022-10-15T11:45:43.883Z,63.25
2022-10-15T11:48:34.317Z,62.03
2022-10-15T11:50:40.164Z,62.13
2022-10-15T11:52:42.654Z,62.38
2022-10-15T11:55:17.809Z,59.65
2022-10-15T11:57:23.407Z,61.64
2022-10-15T11:59:46.790Z,59.62
2022-10-15T12:01:55.226Z,60.18
2022-10-15T12:04:06.176Z,60.14
2022-10-15T12:06:16.631Z,59.64
2022-10-15T12:08:21.293Z,59.31
2022-10-15T12:10:47.914Z,59.07
2022-10-15T12:13:00.805Z,59.13
2022-10-15T12:15:28.665Z,58.33
2022-10-15T12:18:09.515Z,57.36
2022-10-15T12:20:18.725Z,57.26
2022-10-15T12:22:39.565Z,57.25
2022-10-15T12:24:45.388Z,56.64
2022-10-15T12:26:48.239Z,57.06
2022-10-15T12:28:59.494Z,56.68
2022-10-15T12:31:06.587Z,55.63
2022-10-15T12:33:29.253Z,55.30
2022-10-15T12:35:36.806Z,55.77
2022-10-15T12:37:39.457Z,55.98
2022-10-15T12:39:59.507Z,54.91
2022-10-15T12:42:02.539Z,54.70
2022-10-15T12:44:19.133Z,54.23
2022-10-15T12:46:21.894Z,54.72
2022-10-15T12:48:39.757Z,54.74
2022-10-15T12:50:42.675Z,55.37
2022-10-15T12:53:00.627Z,54.77
2022-10-15T12:55:28.237Z,54.00
2022-10-15T12:57:30.880Z,53.22
2022-10-15T12:59:45.658Z,53.33
2022-10-15T13:01:48.241Z,53.31
2022-10-15T13:03:50.809Z,52.68
2022-10-15T13:05:55.538Z,52.94
2022-10-15T13:08:04.234Z,52.36
2022-10-15T13:10:20.774Z,51.56
2022-10-15T13:12:28.841Z,52.19
2022-10-15T13:14:39.395Z,52.40
2022-10-15T13:16:46.227Z,53.67
2022-10-15T13:18:54.056Z,53.70
2022-10-15T13:20:57.957Z,53.96
2022-10-15T13:23:31.928Z,55.09
2022-10-15T13:25:34.840Z,55.55
2022-10-15T13:27:37.889Z,56.10
2022-10-15T13:29:40.620Z,57.27
2022-10-15T13:31:46.530Z,57.79
2022-10-15T13:33:55.105Z,57.71
2022-10-15T13:36:07.101Z,58.44
2022-10-15T13:38:21.032Z,59.30
2022-10-15T13:40:26.696Z,59.83
2022-10-15T13:42:29.429Z,60.22
2022-10-15T13:44:31.990Z,60.53
2022-10-15T13:46:38.886Z,61.05
2022-10-15T13:51:03.232Z,62.24
2022-10-15T13:53:14.986Z,62.57
2022-10-15T13:55:21.152Z,63.17
2022-10-15T13:57:23.865Z,63.13
2022-10-15T13:59:29.900Z,63.74
2022-10-15T14:01:35.051Z,64.41
2022-10-15T14:03:39.463Z,64.39
2022-10-15T14:05:44.202Z,64.35
2022-10-15T14:07:54.844Z,64.84
2022-10-15T14:09:57.893Z,65.65
2022-10-15T14:12:03.429Z,65.82
2022-10-15T14:14:36.731Z,64.97
2022-10-15T14:16:48.050Z,64.78
2022-10-15T14:18:54.316Z,64.95
2022-10-15T14:20:57.257Z,65.18
2022-10-15T14:23:00.020Z,64.74
2022-10-15T14:25:10.523Z,64.64
2022-10-15T14:27:20.343Z,64.75
2022-10-15T14:29:27.483Z,65.14
2022-10-15T14:31:37.511Z,64.98
2022-10-15T14:33:44.404Z,65.92
2022-10-15T14:36:03.318Z,65.93
2022-10-15T14:38:16.718Z,66.15
2022-10-15T14:40:21.604Z,66.08
2022-10-15T14:42:28.558Z,66.14
2022-10-15T14:45:11.509Z,66.34
2022-10-15T14:47:22.201Z,67.06
2022-10-15T14:49:34.843Z,67.44
2022-10-15T14:51:37.515Z,67.34
2022-10-15T14:53:46.531Z,67.94
2022-10-15T14:55:53.627Z,68.32
2022-10-15T14:57:56.343Z,68.64
2022-10-15T15:00:00.451Z,69.18
2022-10-15T15:02:05.576Z,69.18
2022-10-15T15:04:33.629Z,69.50
2022-10-15T15:06:36.236Z,69.46
2022-10-15T15:08:38.895Z,69.86
2022-10-15T15:10:42.518Z,69.72
2022-10-15T15:12:56.772Z,70.26
2022-10-15T15:14:59.791Z,70.40
2022-10-15T15:17:02.366Z,70.83
2022-10-15T15:19:09.194Z,70.99
2022-10-15T15:21:15.008Z,71.81
2022-10-15T15:23:24.253Z,72.04
2022-10-15T15:25:33.916Z,72.39
2022-10-15T15:27:37.778Z,72.37
2022-10-15T15:29:42.028Z,72.93
2022-10-15T15:31:45.563Z,73.01
2022-10-15T15:33:48.348Z,73.71
2022-10-15T15:35:54.518Z,73.45
2022-10-15T15:37:57.184Z,74.08
2022-10-15T15:39:59.800Z,74.20
2022-10-15T15:42:02.437Z,74.23
2022-10-15T15:44:05.684Z,75.24
2022-10-15T15:46:08.538Z,75.27
2022-10-15T15:48:11.114Z,75.60
2022-10-15T15:50:14.366Z,75.17
2022-10-15T15:52:19.088Z,75.52
2022-10-15T15:54:21.789Z,75.44
2022-10-15T15:56:24.843Z,75.79
2022-10-15T15:58:27.501Z,76.13
2022-10-15T16:00:30.249Z,76.35
2022-10-15T16:02:33.106Z,76.14
2022-10-15T16:04:35.919Z,76.13
2022-10-15T16:06:39.866Z,76.13
2022-10-15T16:08:42.513Z,76.56
2022-10-15T16:10:45.214Z,76.43
2022-10-15T16:12:48.015Z,76.86
2022-10-15T16:14:50.757Z,77.08
2022-10-15T16:16:53.342Z,77.12
2022-10-15T16:18:56.002Z,76.90
2022-10-15T16:20:58.600Z,77.21
2022-10-15T16:23:01.239Z,77.68
2022-10-15T16:25:04.021Z,77.44
2022-10-15T16:27:06.806Z,77.56
2022-10-15T16:29:09.476Z,77.74
2022-10-15T16:31:27.807Z,77.92
2022-10-15T16:33:33.151Z,78.27
2022-10-15T16:35:35.886Z,78.36
2022-10-15T16:37:38.552Z,78.49
2022-10-15T16:39:41.259Z,78.50
2022-10-15T16:41:43.892Z,78.36
2022-10-15T16:43:50.052Z,78.82
2022-10-15T16:45:59.730Z,78.46
2022-10-15T16:48:02.335Z,78.88
2022-10-15T16:50:05.317Z,78.97
2022-10-15T16:52:08.096Z,78.98
2022-10-15T16:54:15.625Z,79.14
2022-10-15T16:56:29.525Z,79.74
2022-10-15T16:58:32.942Z,79.54
2022-10-15T17:00:35.677Z,79.82
2022-10-15T17:02:38.468Z,80.15
2022-10-15T17:04:41.117Z,80.22
2022-10-15T17:06:43.734Z,80.41
2022-10-15T17:08:58.027Z,80.07
2022-10-15T17:11:19.007Z,80.38
2022-10-15T17:13:27.874Z,80.56
2022-10-15T17:15:30.562Z,80.20
2022-10-15T17:17:33.178Z,80.48
2022-10-15T17:19:35.842Z,80.49
2022-10-15T17:21:40.329Z,80.05
2022-10-15T17:23:44.103Z,80.05
2022-10-15T17:25:46.817Z,80.49
2022-10-15T17:27:49.537Z,80.50
2022-10-15T17:29:52.407Z,80.51
2022-10-15T17:31:55.077Z,80.59
2022-10-15T17:34:00.875Z,80.21
2022-10-15T17:36:08.939Z,80.44
2022-10-15T17:38:11.575Z,80.52
2022-10-15T17:40:14.293Z,80.74
2022-10-15T17:42:17.093Z,80.98
2022-10-15T17:44:20.445Z,81.26
2022-10-15T17:46:25.844Z,81.00
2022-10-15T17:48:28.936Z,81.06
2022-10-15T17:50:31.545Z,80.96
2022-10-15T17:52:34.439Z,81.09
2022-10-15T17:54:37.349Z,81.01
2022-10-15T17:56:40.227Z,80.65
2022-10-15T17:58:45.060Z,80.62
2022-10-15T18:00:58.334Z,80.86
2022-10-15T18:03:01.506Z,80.80
2022-10-15T18:05:04.627Z,81.20
2022-10-15T18:07:07.666Z,80.67
2022-10-15T18:09:10.302Z,81.01
2022-10-15T18:11:19.421Z,81.17
2022-10-15T18:13:22.117Z,81.57
2022-10-15T18:15:24.841Z,81.58
2022-10-15T18:17:27.901Z,81.62
2022-10-15T18:19:30.922Z,81.93
2022-10-15T18:21:33.562Z,82.00
2022-10-15T18:23:37.349Z,82.17
2022-10-15T18:25:40.071Z,82.36
2022-10-15T18:27:42.742Z,82.49
2022-10-15T18:29:45.432Z,82.37
2022-10-15T18:31:52.229Z,82.83
2022-10-15T18:33:57.931Z,82.96
2022-10-15T18:36:12.490Z,83.16
2022-10-15T18:38:16.453Z,83.17
2022-10-15T18:40:19.056Z,83.37
2022-10-15T18:42:22.038Z,83.01
2022-10-15T18:44:25.167Z,83.27
2022-10-15T18:46:28.858Z,82.99
2022-10-15T18:48:32.919Z,82.99
2022-10-15T18:50:36.378Z,82.85
2022-10-15T18:52:40.490Z,83.16
2022-10-15T18:54:43.378Z,82.81
2022-10-15T18:56:46.637Z,82.86
2022-10-15T18:58:50.159Z,82.75
2022-10-15T19:00:52.862Z,83.04
2022-10-15T19:02:56.991Z,82.74
2022-10-15T19:04:59.586Z,82.97
2022-10-15T19:07:05.264Z,82.84
2022-10-15T19:09:11.149Z,82.92
2022-10-15T19:11:13.784Z,83.10
2022-10-15T19:13:16.490Z,83.13
2022-10-15T19:15:19.155Z,82.72
2022-10-15T19:17:21.799Z,82.94
2022-10-15T19:19:26.272Z,82.75
2022-10-15T19:21:28.912Z,82.81
2022-10-15T19:23:32.056Z,82.99
2022-10-15T19:25:34.757Z,83.12
2022-10-15T19:27:37.476Z,83.00
2022-10-15T19:29:40.649Z,83.02
2022-10-15T19:31:46.850Z,82.87
2022-10-15T19:33:49.477Z,82.84
2022-10-15T19:35:53.163Z,82.75
2022-10-15T19:37:56.137Z,82.87
2022-10-15T19:39:58.750Z,82.68
2022-10-15T19:42:02.768Z,82.75
2022-10-15T19:44:08.393Z,82.65
2022-10-15T19:46:11.244Z,82.20
2022-10-15T19:48:16.807Z,82.10
2022-10-15T19:50:19.612Z,82.23
2022-10-15T19:52:22.188Z,82.17
2022-10-15T19:56:33.724Z,81.90
2022-10-15T19:58:37.093Z,82.05
2022-10-15T20:00:39.714Z,81.60
2022-10-15T20:02:42.535Z,81.81
2022-10-15T20:04:45.096Z,82.37
2022-10-15T20:06:49.393Z,82.29
2022-10-15T20:08:52.159Z,81.91
2022-10-15T20:10:54.833Z,82.15
2022-10-15T20:12:57.422Z,81.98
2022-10-15T20:15:00.083Z,81.62
2022-10-15T20:17:03.505Z,81.70
2022-10-15T20:19:07.110Z,82.27
2022-10-15T20:21:11.748Z,81.89
2022-10-15T20:23:17.710Z,82.11
2022-10-15T20:25:20.334Z,81.88
2022-10-15T20:27:23.000Z,82.15
2022-10-15T20:29:25.670Z,82.14
2022-10-15T20:31:32.883Z,81.78
2022-10-15T20:33:36.949Z,82.30
2022-10-15T20:35:40.871Z,81.91
2022-10-15T20:37:43.622Z,82.37
2022-10-15T20:39:46.390Z,82.08
2022-10-15T20:41:49.483Z,81.91
2022-10-15T20:43:57.685Z,82.63
2022-10-15T20:46:00.410Z,82.52
2022-10-15T20:48:03.624Z,82.34
2022-10-15T20:50:12.622Z,82.40
2022-10-15T20:52:15.881Z,81.88
2022-10-15T20:54:19.345Z,82.05
2022-10-15T20:56:23.688Z,82.28
2022-10-15T20:58:26.485Z,82.49
2022-10-15T21:00:29.126Z,82.19
2022-10-15T21:02:31.716Z,82.21
2022-10-15T21:04:34.385Z,81.48
2022-10-15T21:06:37.029Z,81.92
2022-10-15T21:08:39.678Z,81.65
2022-10-15T21:10:42.814Z,82.16
2022-10-15T21:12:45.401Z,82.04
2022-10-15T21:14:48.181Z,82.05
2022-10-15T21:16:51.051Z,81.97
2022-10-15T21:18:54.424Z,81.89
2022-10-15T21:21:11.289Z,82.03
2022-10-15T21:23:14.478Z,82.13
2022-10-15T21:25:17.198Z,81.91
2022-10-15T21:27:19.735Z,82.15
2022-10-15T21:29:22.977Z,82.26
2022-10-15T21:31:26.550Z,82.30
2022-10-15T21:33:30.390Z,82.68
2022-10-15T21:35:32.958Z,82.41
2022-10-15T21:37:37.875Z,82.40
2022-10-15T21:39:40.533Z,82.90
2022-10-15T21:41:43.173Z,82.42
2022-10-15T21:43:45.862Z,82.86
2022-10-15T21:45:48.515Z,82.85
2022-10-15T21:47:51.209Z,83.34
2022-10-15T21:49:53.828Z,83.39
2022-10-15T21:51:56.501Z,83.34
2022-10-15T21:54:00.142Z,83.49
2022-10-15T21:56:02.796Z,83.72
2022-10-15T21:58:05.497Z,83.68
2022-10-15T22:00:14.548Z,83.56
2022-10-15T22:04:24.650Z,83.16
2022-10-15T22:06:27.885Z,83.13
2022-10-15T22:08:30.962Z,82.47
2022-10-15T22:10:35.687Z,82.22
2022-10-15T22:12:38.564Z,82.22
2022-10-15T22:14:41.212Z,82.11
2022-10-15T22:16:44.238Z,82.08
2022-10-15T22:18:47.356Z,81.51
2022-10-15T22:20:50.072Z,82.08
2022-10-15T22:22:55.993Z,81.50
2022-10-15T22:24:59.805Z,81.57
2022-10-15T22:27:02.376Z,81.50
2022-10-15T22:29:07.858Z,81.21
2022-10-15T22:31:12.985Z,80.98
2022-10-15T22:33:15.621Z,81.08
2022-10-15T22:35:18.238Z,81.09
2022-10-15T22:37:20.895Z,80.57
2022-10-15T22:39:23.543Z,80.90
2022-10-15T22:41:28.323Z,80.69
2022-10-15T22:43:30.992Z,80.39
2022-10-15T22:45:33.592Z,80.32
2022-10-15T22:47:36.173Z,80.55
2022-10-15T22:49:38.832Z,79.88
2022-10-15T22:51:42.423Z,80.14
2022-10-15T22:53:45.141Z,79.62
2022-10-15T22:55:56.119Z,79.52
2022-10-15T22:57:58.720Z,79.81
2022-10-15T23:00:01.277Z,80.10
2022-10-15T23:02:05.085Z,79.87
2022-10-15T23:04:08.490Z,79.75
2022-10-15T23:06:11.965Z,79.57
2022-10-15T23:08:14.813Z,79.25
2022-10-15T23:10:17.440Z,79.20
2022-10-15T23:12:20.099Z,79.42
2022-10-15T23:14:23.012Z,79.66
2022-10-15T23:16:30.639Z,78.99
2022-10-15T23:18:33.377Z,79.12
2022-10-15T23:20:38.251Z,79.41
2022-10-15T23:22:40.822Z,79.38
2022-10-15T23:24:43.384Z,79.41
2022-10-15T23:26:47.044Z,79.12
2022-10-15T23:28:54.728Z,79.30
2022-10-15T23:30:57.569Z,79.27
2022-10-15T23:33:02.946Z,79.50
2022-10-15T23:35:11.282Z,79.42
2022-10-15T23:37:13.919Z,79.63
2022-10-15T23:39:23.563Z,79.40
2022-10-15T23:41:27.736Z,79.83
2022-10-15T23:43:31.484Z,79.21
2022-10-15T23:45:35.798Z,79.59
2022-10-15T23:47:40.731Z,79.72
2022-10-15T23:49:43.408Z,80.16
2022-10-15T23:51:46.194Z,79.95
2022-10-15T23:53:50.180Z,79.92
2022-10-15T23:55:52.853Z,79.64
2022-10-15T23:57:55.464Z,79.90
2022-10-15T23:59:58.329Z,80.08
